sensor_id;sensor_type;location;lat;lon;timestamp;pressure;altitude;pressure_sealevel;temperature;humidity
49459;BME280;35354;51.296;16.924;2023-07-31T00:02:19;99212.59;;;18.11;100.00
49459;BME280;35354;51.296;16.924;2023-07-31T00:04:44;99225.28;;;18.17;100.00
49459;BME280;35354;51.296;16.924;2023-07-31T00:07:10;99201.44;;;17.98;100.00
49459;BME280;35354;51.296;16.924;2023-07-31T00:09:36;99219.81;;;18.09;100.00
49459;BME280;35354;51.296;16.924;2023-07-31T00:12:02;99236.47;;;18.09;100.00
49459;BME280;35354;51.296;16.924;2023-07-31T00:14:27;99235.50;;;18.10;100.00
49459;BME280;35354;51.296;16.924;2023-07-31T00:16:52;99219.50;;;18.02;100.00
49459;BME280;35354;51.296;16.924;2023-07-31T00:19:18;99234.81;;;18.08;100.00
49459;BME280;35354;51.296;16.924;2023-07-31T00:21:44;99224.75;;;18.02;100.00
49459;BME280;35354;51.296;16.924;2023-07-31T00:24:09;99217.97;;;18.00;100.00
49459;BME280;35354;51.296;16.924;2023-07-31T00:26:35;99199.97;;;17.84;100.00
49459;BME280;35354;51.296;16.924;2023-07-31T00:29:00;99178.09;;;17.72;100.00
49459;BME280;35354;51.296;16.924;2023-07-31T00:31:25;99206.72;;;17.77;100.00
49459;BME280;35354;51.296;16.924;2023-07-31T00:33:51;99233.31;;;17.94;100.00
49459;BME280;35354;51.296;16.924;2023-07-31T00:36:16;99238.56;;;17.94;100.00
49459;BME280;35354;51.296;16.924;2023-07-31T00:38:43;99182.31;;;17.63;100.00
49459;BME280;35354;51.296;16.924;2023-07-31T00:41:08;99206.84;;;17.75;100.00
49459;BME280;35354;51.296;16.924;2023-07-31T00:43:33;99224.19;;;17.78;100.00
49459;BME280;35354;51.296;16.924;2023-07-31T00:45:59;99183.88;;;17.45;100.00
49459;BME280;35354;51.296;16.924;2023-07-31T00:48:24;99192.06;;;17.52;100.00
49459;BME280;35354;51.296;16.924;2023-07-31T00:50:50;99233.25;;;17.74;100.00
49459;BME280;35354;51.296;16.924;2023-07-31T00:53:16;99220.41;;;17.59;100.00
49459;BME280;35354;51.296;16.924;2023-07-31T00:55:42;99238.59;;;17.62;100.00
49459;BME280;35354;51.296;16.924;2023-07-31T00:58:08;99234.63;;;17.68;100.00
49459;BME280;35354;51.296;16.924;2023-07-31T01:00:33;99233.78;;;17.67;100.00
49459;BME280;35354;51.296;16.924;2023-07-31T01:02:58;99209.09;;;17.48;100.00
49459;BME280;35354;51.296;16.924;2023-07-31T01:05:32;99242.28;;;17.71;100.00
49459;BME280;35354;51.296;16.924;2023-07-31T01:08:12;99226.66;;;17.58;100.00
49459;BME280;35354;51.296;16.924;2023-07-31T01:10:52;99215.78;;;17.52;100.00
49459;BME280;35354;51.296;16.924;2023-07-31T01:13:19;99215.31;;;17.46;100.00
49459;BME280;35354;51.296;16.924;2023-07-31T01:15:44;99234.94;;;17.54;100.00
49459;BME280;35354;51.296;16.924;2023-07-31T01:18:09;99240.19;;;17.54;100.00
49459;BME280;35354;51.296;16.924;2023-07-31T01:20:35;99238.50;;;17.53;100.00
49459;BME280;35354;51.296;16.924;2023-07-31T01:23:35;99241.84;;;17.55;100.00
49459;BME280;35354;51.296;16.924;2023-07-31T01:26:09;99251.03;;;17.60;100.00
49459;BME280;35354;51.296;16.924;2023-07-31T01:28:56;99235.31;;;17.49;100.00
49459;BME280;35354;51.296;16.924;2023-07-31T01:31:26;99188.13;;;17.25;100.00
49459;BME280;35354;51.296;16.924;2023-07-31T01:33:58;99245.19;;;17.57;100.00
49459;BME280;35354;51.296;16.924;2023-07-31T01:36:25;99235.16;;;17.51;100.00
49459;BME280;35354;51.296;16.924;2023-07-31T01:38:51;99246.28;;;17.54;100.00
49459;BME280;35354;51.296;16.924;2023-07-31T01:41:17;99232.69;;;17.49;100.00
49459;BME280;35354;51.296;16.924;2023-07-31T01:43:42;99223.16;;;17.37;100.00
49459;BME280;35354;51.296;16.924;2023-07-31T01:46:08;99228.13;;;17.40;100.00
49459;BME280;35354;51.296;16.924;2023-07-31T01:48:33;99241.41;;;17.50;100.00
49459;BME280;35354;51.296;16.924;2023-07-31T01:51:01;99210.16;;;17.24;100.00
49459;BME280;35354;51.296;16.924;2023-07-31T01:53:28;99240.38;;;17.41;100.00
49459;BME280;35354;51.296;16.924;2023-07-31T01:55:53;99223.63;;;17.31;100.00
49459;BME280;35354;51.296;16.924;2023-07-31T01:58:18;99238.66;;;17.40;100.00
49459;BME280;35354;51.296;16.924;2023-07-31T02:00:44;99229.72;;;17.31;100.00
49459;BME280;35354;51.296;16.924;2023-07-31T02:03:09;99204.91;;;17.13;100.00
49459;BME280;35354;51.296;16.924;2023-07-31T02:05:34;99228.06;;;17.19;100.00
49459;BME280;35354;51.296;16.924;2023-07-31T02:08:00;99230.72;;;17.19;100.00
49459;BME280;35354;51.296;16.924;2023-07-31T02:10:25;99240.91;;;17.12;100.00
49459;BME280;35354;51.296;16.924;2023-07-31T02:12:50;99240.31;;;17.09;100.00
49459;BME280;35354;51.296;16.924;2023-07-31T02:15:16;99210.47;;;16.87;100.00
49459;BME280;35354;51.296;16.924;2023-07-31T02:17:41;99230.06;;;16.94;100.00
49459;BME280;35354;51.296;16.924;2023-07-31T02:20:07;99228.75;;;16.89;100.00
49459;BME280;35354;51.296;16.924;2023-07-31T02:22:32;99243.00;;;16.86;100.00
49459;BME280;35354;51.296;16.924;2023-07-31T02:24:57;99216.66;;;16.64;100.00
49459;BME280;35354;51.296;16.924;2023-07-31T02:27:23;99211.06;;;16.57;100.00
49459;BME280;35354;51.296;16.924;2023-07-31T02:29:52;99213.22;;;16.52;100.00
49459;BME280;35354;51.296;16.924;2023-07-31T02:32:17;99247.16;;;16.66;100.00
49459;BME280;35354;51.296;16.924;2023-07-31T02:34:43;99238.41;;;16.55;100.00
49459;BME280;35354;51.296;16.924;2023-07-31T02:37:08;99199.44;;;16.26;100.00
49459;BME280;35354;51.296;16.924;2023-07-31T02:39:33;99244.38;;;16.45;100.00
49459;BME280;35354;51.296;16.924;2023-07-31T02:41:59;99200.91;;;16.19;100.00
49459;BME280;35354;51.296;16.924;2023-07-31T02:44:25;99204.13;;;16.23;100.00
49459;BME280;35354;51.296;16.924;2023-07-31T02:46:50;99231.72;;;16.28;100.00
49459;BME280;35354;51.296;16.924;2023-07-31T02:49:16;99206.25;;;16.17;100.00
49459;BME280;35354;51.296;16.924;2023-07-31T02:51:41;99231.84;;;16.27;100.00
49459;BME280;35354;51.296;16.924;2023-07-31T02:54:06;99210.31;;;16.10;100.00
49459;BME280;35354;51.296;16.924;2023-07-31T02:56:32;99177.69;;;15.90;100.00
49459;BME280;35354;51.296;16.924;2023-07-31T02:58:57;99233.13;;;16.21;100.00
49459;BME280;35354;51.296;16.924;2023-07-31T03:01:22;99197.63;;;15.93;100.00
49459;BME280;35354;51.296;16.924;2023-07-31T03:03:48;99224.88;;;16.03;100.00
49459;BME280;35354;51.296;16.924;2023-07-31T03:06:13;99229.78;;;16.08;100.00
49459;BME280;35354;51.296;16.924;2023-07-31T03:08:38;99232.16;;;16.11;100.00
49459;BME280;35354;51.296;16.924;2023-07-31T03:11:03;99230.00;;;16.05;100.00
49459;BME280;35354;51.296;16.924;2023-07-31T03:13:29;99235.84;;;16.08;100.00
49459;BME280;35354;51.296;16.924;2023-07-31T03:15:54;99223.56;;;15.98;100.00
49459;BME280;35354;51.296;16.924;2023-07-31T03:18:19;99202.72;;;15.83;100.00
49459;BME280;35354;51.296;16.924;2023-07-31T03:20:45;99189.94;;;15.79;100.00
49459;BME280;35354;51.296;16.924;2023-07-31T03:23:10;99233.59;;;16.04;100.00
49459;BME280;35354;51.296;16.924;2023-07-31T03:25:36;99234.75;;;16.00;100.00
49459;BME280;35354;51.296;16.924;2023-07-31T03:28:02;99217.69;;;15.94;100.00
49459;BME280;35354;51.296;16.924;2023-07-31T03:30:27;99224.75;;;15.93;100.00
49459;BME280;35354;51.296;16.924;2023-07-31T03:32:53;99240.50;;;16.05;100.00
49459;BME280;35354;51.296;16.924;2023-07-31T03:35:18;99240.41;;;16.06;100.00
49459;BME280;35354;51.296;16.924;2023-07-31T03:37:43;99243.03;;;16.06;100.00
49459;BME280;35354;51.296;16.924;2023-07-31T03:40:09;99201.53;;;15.87;100.00
49459;BME280;35354;51.296;16.924;2023-07-31T03:42:35;99210.25;;;15.88;100.00
49459;BME280;35354;51.296;16.924;2023-07-31T03:45:00;99209.56;;;15.86;100.00
49459;BME280;35354;51.296;16.924;2023-07-31T03:47:26;99231.31;;;15.99;100.00
49459;BME280;35354;51.296;16.924;2023-07-31T03:49:51;99206.56;;;15.90;100.00
49459;BME280;35354;51.296;16.924;2023-07-31T03:52:16;99219.00;;;16.00;100.00
49459;BME280;35354;51.296;16.924;2023-07-31T03:54:42;99236.59;;;16.10;100.00
49459;BME280;35354;51.296;16.924;2023-07-31T03:57:10;99235.63;;;16.11;100.00
49459;BME280;35354;51.296;16.924;2023-07-31T03:59:35;99221.19;;;16.06;100.00
49459;BME280;35354;51.296;16.924;2023-07-31T04:02:00;99231.09;;;16.13;100.00
49459;BME280;35354;51.296;16.924;2023-07-31T04:04:25;99236.59;;;16.21;100.00
49459;BME280;35354;51.296;16.924;2023-07-31T04:06:51;99199.09;;;15.97;100.00
49459;BME280;35354;51.296;16.924;2023-07-31T04:09:16;99196.59;;;16.07;100.00
49459;BME280;35354;51.296;16.924;2023-07-31T04:11:41;99192.16;;;16.07;100.00
49459;BME280;35354;51.296;16.924;2023-07-31T04:14:07;99223.84;;;16.28;100.00
49459;BME280;35354;51.296;16.924;2023-07-31T04:16:32;99205.31;;;16.18;100.00
49459;BME280;35354;51.296;16.924;2023-07-31T04:18:57;99194.19;;;16.15;100.00
49459;BME280;35354;51.296;16.924;2023-07-31T04:21:23;99204.59;;;16.28;100.00
49459;BME280;35354;51.296;16.924;2023-07-31T04:23:48;99221.09;;;16.41;100.00
49459;BME280;35354;51.296;16.924;2023-07-31T04:26:13;99230.06;;;16.50;100.00
49459;BME280;35354;51.296;16.924;2023-07-31T04:28:39;99234.00;;;16.55;100.00
49459;BME280;35354;51.296;16.924;2023-07-31T04:31:04;99240.59;;;16.61;100.00
49459;BME280;35354;51.296;16.924;2023-07-31T04:33:29;99230.78;;;16.63;100.00
49459;BME280;35354;51.296;16.924;2023-07-31T04:35:55;99202.09;;;16.49;100.00
49459;BME280;35354;51.296;16.924;2023-07-31T04:38:21;99226.34;;;16.63;100.00
49459;BME280;35354;51.296;16.924;2023-07-31T04:40:47;99215.22;;;16.60;100.00
49459;BME280;35354;51.296;16.924;2023-07-31T04:43:12;99231.97;;;16.70;100.00
49459;BME280;35354;51.296;16.924;2023-07-31T04:45:38;99243.59;;;16.79;100.00
49459;BME280;35354;51.296;16.924;2023-07-31T04:48:03;99245.63;;;16.86;100.00
49459;BME280;35354;51.296;16.924;2023-07-31T04:50:29;99236.16;;;16.84;100.00
49459;BME280;35354;51.296;16.924;2023-07-31T04:52:55;99239.38;;;16.99;100.00
49459;BME280;35354;51.296;16.924;2023-07-31T04:55:21;99240.41;;;17.18;100.00
49459;BME280;35354;51.296;16.924;2023-07-31T04:57:46;99196.31;;;17.11;100.00
49459;BME280;35354;51.296;16.924;2023-07-31T05:00:11;99229.56;;;17.44;100.00
49459;BME280;35354;51.296;16.924;2023-07-31T05:02:37;99229.56;;;17.44;100.00
49459;BME280;35354;51.296;16.924;2023-07-31T05:05:02;99220.72;;;17.45;100.00
49459;BME280;35354;51.296;16.924;2023-07-31T05:07:28;99240.78;;;17.57;100.00
49459;BME280;35354;51.296;16.924;2023-07-31T05:09:53;99244.94;;;17.60;100.00
49459;BME280;35354;51.296;16.924;2023-07-31T05:12:18;99222.53;;;17.44;100.00
49459;BME280;35354;51.296;16.924;2023-07-31T05:14:44;99229.06;;;17.50;100.00
49459;BME280;35354;51.296;16.924;2023-07-31T05:17:09;99189.53;;;17.29;100.00
49459;BME280;35354;51.296;16.924;2023-07-31T05:19:34;99235.16;;;17.51;100.00
49459;BME280;35354;51.296;16.924;2023-07-31T05:22:00;99234.78;;;17.55;100.00
49459;BME280;35354;51.296;16.924;2023-07-31T05:24:25;99232.75;;;17.59;100.00
49459;BME280;35354;51.296;16.924;2023-07-31T05:26:50;99220.06;;;17.53;100.00
49459;BME280;35354;51.296;16.924;2023-07-31T05:29:16;99213.28;;;17.50;100.00
49459;BME280;35354;51.296;16.924;2023-07-31T05:31:41;99200.22;;;17.49;100.00
49459;BME280;35354;51.296;16.924;2023-07-31T05:34:07;99214.31;;;17.59;100.00
49459;BME280;35354;51.296;16.924;2023-07-31T05:36:32;99234.84;;;17.76;100.00
49459;BME280;35354;51.296;16.924;2023-07-31T05:38:57;99208.31;;;17.57;100.00
49459;BME280;35354;51.296;16.924;2023-07-31T05:41:23;99218.75;;;17.58;100.00
49459;BME280;35354;51.296;16.924;2023-07-31T05:43:48;99204.72;;;17.37;100.00
49459;BME280;35354;51.296;16.924;2023-07-31T05:46:13;99204.97;;;17.34;100.00
49459;BME280;35354;51.296;16.924;2023-07-31T05:48:39;99225.25;;;17.43;100.00
49459;BME280;35354;51.296;16.924;2023-07-31T05:51:04;99226.72;;;17.36;100.00
49459;BME280;35354;51.296;16.924;2023-07-31T05:53:29;99201.91;;;17.17;100.00
49459;BME280;35354;51.296;16.924;2023-07-31T05:55:55;99188.88;;;17.16;100.00
49459;BME280;35354;51.296;16.924;2023-07-31T05:58:20;99222.97;;;17.50;100.00
49459;BME280;35354;51.296;16.924;2023-07-31T06:00:45;99187.50;;;17.33;100.00
49459;BME280;35354;51.296;16.924;2023-07-31T06:03:11;99203.56;;;17.51;100.00
49459;BME280;35354;51.296;16.924;2023-07-31T06:05:36;99216.19;;;17.68;100.00
49459;BME280;35354;51.296;16.924;2023-07-31T06:08:01;99223.53;;;17.85;100.00
49459;BME280;35354;51.296;16.924;2023-07-31T06:10:27;99232.47;;;17.94;100.00
49459;BME280;35354;51.296;16.924;2023-07-31T06:12:53;99216.66;;;17.94;100.00
49459;BME280;35354;51.296;16.924;2023-07-31T06:15:19;99232.88;;;18.10;100.00
49459;BME280;35354;51.296;16.924;2023-07-31T06:17:45;99190.31;;;17.94;100.00
49459;BME280;35354;51.296;16.924;2023-07-31T06:20:10;99191.09;;;18.06;100.00
49459;BME280;35354;51.296;16.924;2023-07-31T06:22:36;99211.31;;;18.26;100.00
49459;BME280;35354;51.296;16.924;2023-07-31T06:25:01;99187.56;;;18.16;100.00
49459;BME280;35354;51.296;16.924;2023-07-31T06:27:26;99212.06;;;18.38;100.00
49459;BME280;35354;51.296;16.924;2023-07-31T06:29:52;99237.16;;;18.63;100.00
49459;BME280;35354;51.296;16.924;2023-07-31T06:32:17;99229.94;;;18.65;100.00
49459;BME280;35354;51.296;16.924;2023-07-31T06:34:42;99231.13;;;18.72;100.00
49459;BME280;35354;51.296;16.924;2023-07-31T06:37:08;99233.28;;;18.88;100.00
49459;BME280;35354;51.296;16.924;2023-07-31T06:39:33;99238.81;;;18.94;100.00
49459;BME280;35354;51.296;16.924;2023-07-31T06:41:58;99241.19;;;18.98;100.00
49459;BME280;35354;51.296;16.924;2023-07-31T06:44:24;99247.47;;;18.97;100.00
49459;BME280;35354;51.296;16.924;2023-07-31T06:46:50;99217.28;;;18.89;100.00
49459;BME280;35354;51.296;16.924;2023-07-31T06:49:16;99208.22;;;18.73;100.00
49459;BME280;35354;51.296;16.924;2023-07-31T06:51:41;99213.09;;;18.77;100.00
49459;BME280;35354;51.296;16.924;2023-07-31T06:54:08;99248.97;;;18.99;100.00
49459;BME280;35354;51.296;16.924;2023-07-31T06:56:33;99196.28;;;18.78;100.00
49459;BME280;35354;51.296;16.924;2023-07-31T06:58:59;99199.09;;;18.96;100.00
49459;BME280;35354;51.296;16.924;2023-07-31T07:01:24;99229.72;;;19.18;100.00
49459;BME280;35354;51.296;16.924;2023-07-31T07:03:49;99232.25;;;19.39;100.00
49459;BME280;35354;51.296;16.924;2023-07-31T07:06:16;99231.13;;;19.41;100.00
49459;BME280;35354;51.296;16.924;2023-07-31T07:08:42;99232.38;;;19.57;100.00
49459;BME280;35354;51.296;16.924;2023-07-31T07:11:07;99217.69;;;19.64;100.00
49459;BME280;35354;51.296;16.924;2023-07-31T07:13:32;99222.25;;;19.72;100.00
49459;BME280;35354;51.296;16.924;2023-07-31T07:15:58;99188.63;;;19.74;100.00
49459;BME280;35354;51.296;16.924;2023-07-31T07:18:23;99205.75;;;20.26;100.00
49459;BME280;35354;51.296;16.924;2023-07-31T07:20:50;99210.88;;;20.75;100.00
49459;BME280;35354;51.296;16.924;2023-07-31T07:23:16;99199.47;;;21.20;100.00
49459;BME280;35354;51.296;16.924;2023-07-31T07:25:42;99227.06;;;21.62;98.73
49459;BME280;35354;51.296;16.924;2023-07-31T07:28:08;99208.84;;;21.85;96.37
49459;BME280;35354;51.296;16.924;2023-07-31T07:30:34;99187.81;;;22.10;95.61
49459;BME280;35354;51.296;16.924;2023-07-31T07:32:59;99214.66;;;23.01;91.95
49459;BME280;35354;51.296;16.924;2023-07-31T07:35:25;99205.06;;;24.31;88.82
49459;BME280;35354;51.296;16.924;2023-07-31T07:37:50;99210.16;;;25.58;80.67
49459;BME280;35354;51.296;16.924;2023-07-31T07:40:16;99194.13;;;26.49;78.62
49459;BME280;35354;51.296;16.924;2023-07-31T07:42:41;99201.66;;;26.90;75.36
49459;BME280;35354;51.296;16.924;2023-07-31T07:45:07;99210.44;;;26.69;74.58
49459;BME280;35354;51.296;16.924;2023-07-31T07:47:32;99178.72;;;26.06;73.79
49459;BME280;35354;51.296;16.924;2023-07-31T07:49:57;99204.69;;;25.75;74.61
49459;BME280;35354;51.296;16.924;2023-07-31T07:52:23;99174.06;;;25.25;76.63
49459;BME280;35354;51.296;16.924;2023-07-31T07:54:48;99212.22;;;25.25;77.28
49459;BME280;35354;51.296;16.924;2023-07-31T07:57:13;99203.38;;;24.85;77.44
49459;BME280;35354;51.296;16.924;2023-07-31T07:59:40;99196.22;;;24.47;78.64
49459;BME280;35354;51.296;16.924;2023-07-31T08:02:05;99163.41;;;23.90;78.29
49459;BME280;35354;51.296;16.924;2023-07-31T08:04:30;99205.78;;;23.92;77.35
49459;BME280;35354;51.296;16.924;2023-07-31T08:06:56;99201.31;;;23.60;78.04
49459;BME280;35354;51.296;16.924;2023-07-31T08:09:21;99203.59;;;23.47;79.20
49459;BME280;35354;51.296;16.924;2023-07-31T08:11:46;99204.59;;;23.46;80.30
49459;BME280;35354;51.296;16.924;2023-07-31T08:14:12;99161.72;;;23.24;81.66
49459;BME280;35354;51.296;16.924;2023-07-31T08:16:37;99159.25;;;23.31;80.65
49459;BME280;35354;51.296;16.924;2023-07-31T08:19:02;99166.88;;;23.50;81.23
49459;BME280;35354;51.296;16.924;2023-07-31T08:21:28;99196.66;;;23.95;81.41
49459;BME280;35354;51.296;16.924;2023-07-31T08:23:53;99167.06;;;23.98;80.66
49459;BME280;35354;51.296;16.924;2023-07-31T08:26:19;99177.66;;;24.14;78.40
49459;BME280;35354;51.296;16.924;2023-07-31T08:28:44;99198.41;;;24.43;78.26
49459;BME280;35354;51.296;16.924;2023-07-31T08:31:10;99197.88;;;24.48;78.54
49459;BME280;35354;51.296;16.924;2023-07-31T08:33:36;99216.72;;;24.38;78.98
49459;BME280;35354;51.296;16.924;2023-07-31T08:36:01;99215.91;;;24.13;79.97
49459;BME280;35354;51.296;16.924;2023-07-31T08:38:29;99215.94;;;23.88;81.75
49459;BME280;35354;51.296;16.924;2023-07-31T08:42:01;99171.84;;;23.12;81.94
49459;BME280;35354;51.296;16.924;2023-07-31T08:44:52;99204.19;;;23.00;82.95
49459;BME280;35354;51.296;16.924;2023-07-31T08:47:19;99188.78;;;22.69;84.97
49459;BME280;35354;51.296;16.924;2023-07-31T08:49:46;99218.00;;;22.69;86.13
49459;BME280;35354;51.296;16.924;2023-07-31T08:55:24;99183.09;;;22.22;87.75
49459;BME280;35354;51.296;16.924;2023-07-31T08:57:51;99164.72;;;22.02;88.58
49459;BME280;35354;51.296;16.924;2023-07-31T09:00:20;99204.28;;;22.13;88.61
49459;BME280;35354;51.296;16.924;2023-07-31T09:02:56;99196.47;;;21.94;89.38
49459;BME280;35354;51.296;16.924;2023-07-31T09:05:23;99183.72;;;21.72;89.01
49459;BME280;35354;51.296;16.924;2023-07-31T09:07:49;99182.13;;;21.61;88.94
49459;BME280;35354;51.296;16.924;2023-07-31T09:10:15;99207.81;;;21.60;89.03
49459;BME280;35354;51.296;16.924;2023-07-31T09:12:41;99141.56;;;21.07;88.79
49459;BME280;35354;51.296;16.924;2023-07-31T09:15:07;99161.16;;;21.14;89.04
49459;BME280;35354;51.296;16.924;2023-07-31T09:17:35;99186.81;;;21.13;88.82
49459;BME280;35354;51.296;16.924;2023-07-31T09:20:15;99203.53;;;21.14;88.75
49459;BME280;35354;51.296;16.924;2023-07-31T09:22:41;99214.41;;;21.11;88.89
49459;BME280;35354;51.296;16.924;2023-07-31T09:25:24;99221.22;;;20.96;89.09
49459;BME280;35354;51.296;16.924;2023-07-31T09:30:19;99226.06;;;20.73;88.90
49459;BME280;35354;51.296;16.924;2023-07-31T09:32:47;99233.22;;;20.62;89.06
49459;BME280;35354;51.296;16.924;2023-07-31T09:35:27;99232.97;;;20.46;90.14
49459;BME280;35354;51.296;16.924;2023-07-31T09:37:55;99235.44;;;20.48;90.52
49459;BME280;35354;51.296;16.924;2023-07-31T09:40:28;99244.81;;;20.52;91.50
49459;BME280;35354;51.296;16.924;2023-07-31T09:42:56;99242.31;;;20.50;91.35
49459;BME280;35354;51.296;16.924;2023-07-31T09:45:23;99198.13;;;20.13;91.64
49459;BME280;35354;51.296;16.924;2023-07-31T09:47:48;99201.06;;;20.10;92.31
49459;BME280;35354;51.296;16.924;2023-07-31T09:50:14;99212.88;;;20.16;93.01
49459;BME280;35354;51.296;16.924;2023-07-31T09:52:41;99195.09;;;19.99;92.92
49459;BME280;35354;51.296;16.924;2023-07-31T09:55:07;99202.22;;;19.98;93.37
49459;BME280;35354;51.296;16.924;2023-07-31T09:57:33;99243.91;;;20.14;94.09
49459;BME280;35354;51.296;16.924;2023-07-31T09:59:59;99199.88;;;19.85;94.38
49459;BME280;35354;51.296;16.924;2023-07-31T10:02:26;99223.34;;;19.98;95.50
49459;BME280;35354;51.296;16.924;2023-07-31T10:04:53;99227.66;;;19.99;95.74
49459;BME280;35354;51.296;16.924;2023-07-31T10:07:22;99223.22;;;19.90;96.49
49459;BME280;35354;51.296;16.924;2023-07-31T10:09:51;99216.13;;;19.90;96.87
49459;BME280;35354;51.296;16.924;2023-07-31T10:12:19;99207.50;;;19.88;97.58
49459;BME280;35354;51.296;16.924;2023-07-31T10:14:44;99199.13;;;19.93;97.99
49459;BME280;35354;51.296;16.924;2023-07-31T10:17:10;99200.66;;;19.96;98.00
49459;BME280;35354;51.296;16.924;2023-07-31T10:19:36;99217.88;;;20.09;98.11
49459;BME280;35354;51.296;16.924;2023-07-31T10:22:03;99167.44;;;19.83;98.69
49459;BME280;35354;51.296;16.924;2023-07-31T10:24:29;99212.59;;;20.19;98.79
49459;BME280;35354;51.296;16.924;2023-07-31T10:26:57;99166.00;;;20.08;98.58
49459;BME280;35354;51.296;16.924;2023-07-31T10:29:24;99216.94;;;20.57;98.68
49459;BME280;35354;51.296;16.924;2023-07-31T10:31:50;99215.63;;;20.71;97.22
49459;BME280;35354;51.296;16.924;2023-07-31T10:34:17;99214.63;;;20.82;94.55
49459;BME280;35354;51.296;16.924;2023-07-31T10:36:42;99217.34;;;20.90;93.33
49459;BME280;35354;51.296;16.924;2023-07-31T10:39:37;99233.84;;;21.02;92.11
49459;BME280;35354;51.296;16.924;2023-07-31T10:42:12;99216.94;;;20.85;92.43
49459;BME280;35354;51.296;16.924;2023-07-31T10:44:37;99232.59;;;20.78;92.86
49459;BME280;35354;51.296;16.924;2023-07-31T10:47:03;99201.91;;;20.58;94.14
49459;BME280;35354;51.296;16.924;2023-07-31T10:49:29;99201.31;;;20.64;95.33
49459;BME280;35354;51.296;16.924;2023-07-31T10:51:57;99211.88;;;20.74;95.77
49459;BME280;35354;51.296;16.924;2023-07-31T10:54:22;99208.38;;;20.73;96.08
49459;BME280;35354;51.296;16.924;2023-07-31T10:56:50;99202.84;;;20.66;95.20
49459;BME280;35354;51.296;16.924;2023-07-31T10:59:15;99195.09;;;20.55;96.29
49459;BME280;35354;51.296;16.924;2023-07-31T11:01:52;99193.25;;;20.56;96.88
49459;BME280;35354;51.296;16.924;2023-07-31T11:04:25;99157.41;;;20.34;96.86
49459;BME280;35354;51.296;16.924;2023-07-31T11:06:56;99172.41;;;20.53;97.16
49459;BME280;35354;51.296;16.924;2023-07-31T11:09:22;99170.94;;;20.68;98.23
49459;BME280;35354;51.296;16.924;2023-07-31T11:11:47;99125.91;;;20.78;96.39
49459;BME280;35354;51.296;16.924;2023-07-31T11:14:15;99158.66;;;21.30;95.76
49459;BME280;35354;51.296;16.924;2023-07-31T11:16:41;99157.00;;;21.65;94.59
49459;BME280;35354;51.296;16.924;2023-07-31T11:19:08;99127.19;;;21.89;93.51
49459;BME280;35354;51.296;16.924;2023-07-31T11:21:33;99149.13;;;22.25;91.56
49459;BME280;35354;51.296;16.924;2023-07-31T11:23:59;99145.44;;;22.52;90.36
49459;BME280;35354;51.296;16.924;2023-07-31T11:26:24;99127.22;;;22.65;88.88
49459;BME280;35354;51.296;16.924;2023-07-31T11:28:50;99150.25;;;22.99;86.69
49459;BME280;35354;51.296;16.924;2023-07-31T11:31:17;99137.97;;;23.06;83.70
49459;BME280;35354;51.296;16.924;2023-07-31T11:33:42;99103.75;;;22.95;83.63
49459;BME280;35354;51.296;16.924;2023-07-31T11:36:19;99130.84;;;23.15;83.68
49459;BME280;35354;51.296;16.924;2023-07-31T11:38:45;99113.25;;;23.06;83.18
49459;BME280;35354;51.296;16.924;2023-07-31T11:41:10;99096.97;;;23.01;83.26
49459;BME280;35354;51.296;16.924;2023-07-31T11:43:38;99084.66;;;22.91;83.78
49459;BME280;35354;51.296;16.924;2023-07-31T11:46:03;99118.38;;;23.15;82.62
49459;BME280;35354;51.296;16.924;2023-07-31T11:48:31;99105.28;;;23.14;82.55
49459;BME280;35354;51.296;16.924;2023-07-31T11:51:00;99089.97;;;23.00;82.79
49459;BME280;35354;51.296;16.924;2023-07-31T11:53:43;99108.25;;;22.95;81.53
49459;BME280;35354;51.296;16.924;2023-07-31T11:56:11;99083.44;;;22.70;81.30
49459;BME280;35354;51.296;16.924;2023-07-31T11:58:37;99094.38;;;22.66;81.63
49459;BME280;35354;51.296;16.924;2023-07-31T12:01:04;99111.97;;;22.67;81.72
49459;BME280;35354;51.296;16.924;2023-07-31T12:03:31;99080.88;;;22.44;81.81
49459;BME280;35354;51.296;16.924;2023-07-31T12:05:58;99078.75;;;22.47;83.02
49459;BME280;35354;51.296;16.924;2023-07-31T12:08:24;99085.41;;;22.59;82.91
49459;BME280;35354;51.296;16.924;2023-07-31T12:10:50;99074.44;;;22.62;82.63
49459;BME280;35354;51.296;16.924;2023-07-31T12:13:26;99050.41;;;22.56;82.29
49459;BME280;35354;51.296;16.924;2023-07-31T12:15:59;99090.97;;;22.90;83.23
49459;BME280;35354;51.296;16.924;2023-07-31T12:18:26;99071.84;;;22.87;82.95
49459;BME280;35354;51.296;16.924;2023-07-31T12:20:57;99083.53;;;23.02;82.09
49459;BME280;35354;51.296;16.924;2023-07-31T12:23:25;99068.09;;;22.98;81.21
49459;BME280;35354;51.296;16.924;2023-07-31T12:26:04;99083.69;;;23.41;80.27
49459;BME280;35354;51.296;16.924;2023-07-31T12:28:30;99043.81;;;23.33;79.54
49459;BME280;35354;51.296;16.924;2023-07-31T12:30:59;99071.53;;;23.55;78.45
49459;BME280;35354;51.296;16.924;2023-07-31T12:33:31;99052.78;;;23.49;78.41
49459;BME280;35354;51.296;16.924;2023-07-31T12:35:58;99005.31;;;23.21;78.61
49459;BME280;35354;51.296;16.924;2023-07-31T12:38:23;99030.84;;;23.38;78.63
49459;BME280;35354;51.296;16.924;2023-07-31T12:40:48;99049.44;;;23.55;78.57
49459;BME280;35354;51.296;16.924;2023-07-31T12:43:14;99038.47;;;23.58;78.54
49459;BME280;35354;51.296;16.924;2023-07-31T12:45:39;99042.97;;;23.65;77.70
49459;BME280;35354;51.296;16.924;2023-07-31T12:48:04;99025.19;;;23.58;77.21
49459;BME280;35354;51.296;16.924;2023-07-31T12:50:30;99040.47;;;23.64;76.74